Time;durP1;ratioP1;P1;durP2;ratioP2;P2;SDS_P1;SDS_P2;PMS_P1;PMS_P2;Temp;Humidity;BMP_temperature;BMP_pressure;BME280_temperature;BME280_humidity;BME280_pressure;Samples;Min_cycle;Max_cycle;Signal;HPM_P1;HPM_P2
2022/07/11 00:02:15;;;;;;;2.30;1.30;;;16.10;99.90;;;;;;5066219;28;20040;-67
2022/07/11 00:04:46;;;;;;;3.50;1.40;;;16.10;99.90;;;;;;5071131;28;20044;-66
2022/07/11 00:07:12;;;;;;;4.17;1.20;;;16.10;99.90;;;;;;5050921;28;20571;-66
2022/07/11 00:09:38;;;;;;;2.70;1.45;;;16.00;99.90;;;;;;5065895;28;20048;-67
2022/07/11 00:12:04;;;;;;;1.70;1.27;;;15.90;99.90;;;;;;5053510;28;20485;-66
2022/07/11 00:14:30;;;;;;;3.55;1.30;;;15.90;99.90;;;;;;5069936;28;20101;-67
2022/07/11 00:16:56;;;;;;;2.20;1.13;;;15.80;99.90;;;;;;5052799;28;20464;-67
2022/07/11 00:19:22;;;;;;;2.40;1.10;;;15.80;99.90;;;;;;5049192;28;20048;-67
2022/07/11 00:21:49;;;;;;;3.17;1.20;;;15.90;99.90;;;;;;5025907;28;20090;-67
2022/07/11 00:24:17;;;;;;;2.13;1.08;;;15.90;99.90;;;;;;5069250;28;20041;-67
2022/07/11 00:26:43;;;;;;;2.60;1.10;;;15.80;99.90;;;;;;5085018;28;20062;-67
2022/07/11 00:29:09;;;;;;;3.75;1.50;;;15.80;99.90;;;;;;5058129;28;20533;-67
2022/07/11 00:31:34;;;;;;;1.95;1.15;;;15.70;99.90;;;;;;5053058;28;20033;-67
2022/07/11 00:34:00;;;;;;;2.15;1.20;;;15.70;99.90;;;;;;5044592;28;20462;-67
2022/07/11 00:36:26;;;;;;;2.22;1.08;;;15.70;99.90;;;;;;5047961;28;20072;-66
2022/07/11 00:38:51;;;;;;;2.83;1.20;;;15.70;99.90;;;;;;5070030;28;20648;-66
2022/07/11 00:41:18;;;;;;;2.97;1.33;;;15.60;99.90;;;;;;5049801;28;20032;-66
2022/07/11 00:43:59;;;;;;;2.65;1.40;;;15.60;99.90;;;;;;5071495;28;20068;-67
2022/07/11 00:46:26;;;;;;;4.13;1.42;;;15.60;99.90;;;;;;5070689;28;20371;-67
2022/07/11 00:48:53;;;;;;;3.00;1.50;;;15.60;99.90;;;;;;5053021;28;20506;-66
2022/07/11 00:51:20;;;;;;;3.67;1.65;;;15.60;99.90;;;;;;5053194;28;20142;-66
2022/07/11 00:53:49;;;;;;;4.05;1.77;;;15.50;99.90;;;;;;5073910;28;20063;-67
2022/07/11 00:56:15;;;;;;;3.25;1.73;;;15.60;99.90;;;;;;5055265;28;20458;-67
2022/07/11 00:58:42;;;;;;;3.72;1.80;;;15.50;99.90;;;;;;5073302;28;20045;-67
2022/07/11 01:01:08;;;;;;;6.47;1.92;;;15.50;99.90;;;;;;5074894;28;20366;-67
2022/07/11 01:03:39;;;;;;;4.25;1.73;;;15.40;99.90;;;;;;5074255;28;20042;-67
2022/07/11 01:06:09;;;;;;;3.03;1.70;;;15.40;99.90;;;;;;5056318;28;20083;-67
2022/07/11 01:08:35;;;;;;;4.45;2.08;;;15.40;99.90;;;;;;5060229;28;20029;-66
2022/07/11 01:11:08;;;;;;;3.42;1.80;;;15.40;99.90;;;;;;5036040;28;20045;-67
2022/07/11 01:13:34;;;;;;;3.25;1.98;;;15.40;99.90;;;;;;5071887;28;20067;-66
2022/07/11 01:16:19;;;;;;;3.33;1.98;;;15.40;99.90;;;;;;5054107;28;20059;-66
2022/07/11 01:18:50;;;;;;;3.72;2.10;;;15.40;99.90;;;;;;5035819;28;20606;-67
2022/07/11 01:21:24;;;;;;;2.67;1.67;;;15.40;99.90;;;;;;5035965;28;20083;-67
2022/07/11 01:23:51;;;;;;;3.75;2.03;;;15.40;99.90;;;;;;5035925;28;20041;-67
2022/07/11 01:26:18;;;;;;;3.03;2.15;;;15.40;99.90;;;;;;5053988;28;20037;-67
2022/07/11 01:28:44;;;;;;;2.20;1.92;;;15.40;99.90;;;;;;5057014;28;20068;-67
2022/07/11 01:31:11;;;;;;;3.05;1.92;;;15.40;99.90;;;;;;5062172;28;20089;-66
2022/07/11 01:33:37;;;;;;;2.55;1.98;;;15.40;99.90;;;;;;5056344;28;20383;-67
2022/07/11 01:36:03;;;;;;;2.25;2.05;;;15.50;99.90;;;;;;5066888;28;20086;-67
2022/07/11 01:38:29;;;;;;;3.17;2.00;;;15.50;99.90;;;;;;5053211;28;20045;-66
2022/07/11 01:40:55;;;;;;;2.65;2.42;;;15.40;99.90;;;;;;5067744;28;20462;-66
2022/07/11 01:43:21;;;;;;;2.80;2.25;;;15.40;99.90;;;;;;5061629;28;20124;-66
2022/07/11 01:45:53;;;;;;;4.18;2.15;;;15.40;99.90;;;;;;5043806;28;20036;-66
2022/07/11 01:48:19;;;;;;;2.90;2.30;;;15.40;99.90;;;;;;5070188;28;20032;-66
2022/07/11 01:50:46;;;;;;;3.35;2.28;;;15.40;99.90;;;;;;5076695;28;20043;-66
2022/07/11 01:53:12;;;;;;;2.60;2.40;;;15.40;99.90;;;;;;5061529;28;20741;-66
2022/07/11 01:55:37;;;;;;;2.25;2.05;;;15.40;99.90;;;;;;5055304;28;20131;-66
2022/07/11 01:58:03;;;;;;;2.38;1.98;;;15.30;99.90;;;;;;5073349;28;20068;-66
2022/07/11 02:00:28;;;;;;;3.38;1.90;;;15.40;99.90;;;;;;5038652;28;20072;-67
2022/07/11 02:02:54;;;;;;;3.00;2.25;;;15.40;99.90;;;;;;5053934;28;20055;-67
2022/07/11 02:05:19;;;;;;;3.03;2.25;;;15.40;99.90;;;;;;5069341;28;20037;-67
2022/07/11 02:10:29;;;;;;;2.90;2.60;;;15.50;99.90;;;;;;5055158;28;20498;-66
2022/07/11 02:12:59;;;;;;;3.75;2.70;;;15.40;99.90;;;;;;5050646;28;20063;-66
2022/07/11 02:15:26;;;;;;;3.97;2.53;;;15.40;99.90;;;;;;5061734;28;20036;-66
2022/07/11 02:17:51;;;;;;;2.85;2.60;;;15.40;99.90;;;;;;5062573;28;20062;-67
2022/07/11 02:20:22;;;;;;;4.85;2.35;;;15.40;99.90;;;;;;5052749;28;20037;-67
2022/07/11 02:22:48;;;;;;;4.50;2.85;;;15.40;99.90;;;;;;5066089;28;20071;-67
2022/07/11 02:25:15;;;;;;;3.47;2.50;;;15.40;99.90;;;;;;5051751;28;20045;-67
2022/07/11 02:27:40;;;;;;;3.45;2.70;;;15.40;99.90;;;;;;5038709;28;20063;-67
2022/07/11 02:30:07;;;;;;;3.63;3.03;;;15.40;99.90;;;;;;5071128;28;20032;-67
2022/07/11 02:32:33;;;;;;;4.80;2.58;;;15.40;99.90;;;;;;5054102;28;20032;-66
2022/07/11 02:34:59;;;;;;;4.40;2.88;;;15.50;99.90;;;;;;5065933;28;20486;-67
2022/07/11 02:37:25;;;;;;;2.70;2.50;;;15.40;99.90;;;;;;5048213;28;20079;-66
2022/07/11 02:39:51;;;;;;;5.38;3.00;;;15.50;99.90;;;;;;5048457;28;20056;-67
2022/07/11 02:42:16;;;;;;;3.30;2.90;;;15.40;99.90;;;;;;5064822;28;20111;-66
2022/07/11 02:44:42;;;;;;;3.95;3.28;;;15.40;99.90;;;;;;5037077;28;20452;-67
2022/07/11 02:47:07;;;;;;;3.13;2.78;;;15.50;99.90;;;;;;5065300;28;20451;-66
2022/07/11 02:49:33;;;;;;;2.90;2.60;;;15.50;99.90;;;;;;5068467;28;20119;-67
2022/07/11 02:51:59;;;;;;;3.58;3.28;;;15.50;99.90;;;;;;5051367;28;20048;-67
2022/07/11 02:54:24;;;;;;;3.15;2.72;;;15.50;99.90;;;;;;5067648;28;20119;-67
2022/07/11 02:56:50;;;;;;;2.85;2.40;;;15.50;99.90;;;;;;5069176;28;20164;-66
2022/07/11 02:59:16;;;;;;;4.22;2.92;;;15.50;99.90;;;;;;5027173;28;20040;-67
2022/07/11 03:01:41;;;;;;;3.10;2.85;;;15.40;99.90;;;;;;5044044;28;20269;-66
2022/07/11 03:04:10;;;;;;;4.00;2.90;;;15.40;99.90;;;;;;5059300;28;20483;-66
2022/07/11 03:06:36;;;;;;;4.35;3.40;;;15.40;99.90;;;;;;5079469;22;20616;-67
2022/07/11 03:09:02;;;;;;;5.13;2.83;;;15.50;99.90;;;;;;5058693;28;20119;-68
2022/07/11 03:11:28;;;;;;;3.60;2.40;;;15.50;99.90;;;;;;5076987;28;20039;-68
2022/07/11 03:13:53;;;;;;;3.80;2.97;;;15.50;99.90;;;;;;5057935;28;20608;-67
2022/07/11 03:16:19;;;;;;;3.22;2.78;;;15.50;99.90;;;;;;5049162;28;20091;-67
2022/07/11 03:18:45;;;;;;;5.53;3.40;;;15.50;99.90;;;;;;5050792;28;20040;-68
2022/07/11 03:21:10;;;;;;;4.13;3.22;;;15.50;99.90;;;;;;5057785;28;20042;-68
2022/07/11 03:23:36;;;;;;;3.65;3.35;;;15.50;99.90;;;;;;5071391;28;20044;-68
2022/07/11 03:26:02;;;;;;;4.60;3.47;;;15.50;99.90;;;;;;5090684;28;20094;-67
2022/07/11 03:28:28;;;;;;;4.07;3.60;;;15.50;99.90;;;;;;5052691;28;20052;-67
2022/07/11 03:30:54;;;;;;;5.47;3.90;;;15.50;99.90;;;;;;5066051;28;20123;-68
2022/07/11 03:33:20;;;;;;;4.63;3.78;;;15.50;99.90;;;;;;5062370;28;20079;-68
2022/07/11 03:35:46;;;;;;;4.40;3.40;;;15.60;99.90;;;;;;5062010;28;20060;-67
2022/07/11 03:38:12;;;;;;;4.45;3.95;;;15.50;99.90;;;;;;5064092;28;20033;-68
2022/07/11 03:40:39;;;;;;;5.70;4.07;;;15.50;99.90;;;;;;5067126;28;20036;-68
2022/07/11 03:43:04;;;;;;;5.68;3.95;;;15.50;99.90;;;;;;5062293;28;20040;-68
2022/07/11 03:45:30;;;;;;;6.88;3.97;;;15.50;99.90;;;;;;5064020;28;20040;-68
2022/07/11 03:47:55;;;;;;;4.82;3.47;;;15.50;99.90;;;;;;5068686;28;20598;-68
2022/07/11 03:50:21;;;;;;;4.43;3.63;;;15.60;99.90;;;;;;5048384;28;20095;-68
2022/07/11 03:52:47;;;;;;;3.53;3.22;;;15.60;99.90;;;;;;5065312;28;20033;-68
2022/07/11 03:55:12;;;;;;;5.32;3.95;;;15.60;99.90;;;;;;5068788;28;20071;-68
2022/07/11 03:57:38;;;;;;;8.23;4.03;;;15.60;99.90;;;;;;5060086;28;20087;-67
2022/07/11 04:00:06;;;;;;;4.22;3.80;;;15.60;99.90;;;;;;5053664;28;20115;-68
2022/07/11 04:02:35;;;;;;;4.45;3.13;;;15.60;99.90;;;;;;5064121;28;20044;-68
2022/07/11 04:05:01;;;;;;;3.33;2.83;;;15.60;99.90;;;;;;5037707;28;20040;-68
2022/07/11 04:07:30;;;;;;;8.52;4.00;;;15.60;99.90;;;;;;5029681;28;20122;-67
2022/07/11 04:09:56;;;;;;;4.78;3.55;;;15.60;99.90;;;;;;5047294;28;20037;-67
2022/07/11 04:12:22;;;;;;;4.32;3.60;;;15.60;99.90;;;;;;5049502;28;20490;-67
2022/07/11 04:14:48;;;;;;;5.15;4.00;;;15.60;99.90;;;;;;5046308;28;20037;-68
2022/07/11 04:17:13;;;;;;;3.83;2.92;;;15.60;99.90;;;;;;5043418;28;20052;-68
2022/07/11 04:19:40;;;;;;;4.95;3.65;;;15.60;99.90;;;;;;5032610;28;20569;-68
2022/07/11 04:22:09;;;;;;;4.05;3.05;;;15.60;99.90;;;;;;5039292;28;20132;-67
2022/07/11 04:24:34;;;;;;;3.53;2.97;;;15.60;99.90;;;;;;5020663;28;20391;-68
2022/07/11 04:27:00;;;;;;;3.75;3.03;;;15.60;99.90;;;;;;5045180;28;20037;-68
2022/07/11 04:29:25;;;;;;;3.03;2.63;;;15.60;99.90;;;;;;5051543;28;20052;-68
2022/07/11 04:31:51;;;;;;;3.65;3.13;;;15.60;99.90;;;;;;5052251;28;20112;-68
2022/07/11 04:34:17;;;;;;;3.92;2.60;;;15.60;99.90;;;;;;5050525;28;20036;-68
2022/07/11 04:36:44;;;;;;;3.55;3.17;;;15.60;99.90;;;;;;5048749;28;20547;-68
2022/07/11 04:39:09;;;;;;;2.80;1.80;;;15.70;99.90;;;;;;5049635;28;20058;-67
2022/07/11 04:41:35;;;;;;;3.00;2.10;;;15.70;99.90;;;;;;5050881;28;20151;-67
2022/07/11 04:44:01;;;;;;;2.00;1.80;;;15.70;99.90;;;;;;5053071;28;20029;-68
2022/07/11 04:46:27;;;;;;;2.90;1.70;;;15.80;99.90;;;;;;5050621;28;20600;-68
2022/07/11 04:48:52;;;;;;;4.50;2.00;;;15.80;99.90;;;;;;5038015;28;20036;-68
2022/07/11 04:51:18;;;;;;;3.45;1.30;;;15.80;99.90;;;;;;5038446;28;20035;-67
2022/07/11 04:53:44;;;;;;;1.73;1.42;;;15.90;99.90;;;;;;5043205;28;20670;-68
2022/07/11 04:56:09;;;;;;;3.28;1.45;;;16.00;99.90;;;;;;5049701;28;20045;-68
2022/07/11 04:58:36;;;;;;;5.03;1.45;;;16.10;99.90;;;;;;5040899;28;20137;-68
2022/07/11 05:01:02;;;;;;;1.63;1.30;;;16.20;99.90;;;;;;5050757;28;20064;-68
2022/07/11 05:03:28;;;;;;;3.45;1.52;;;16.20;99.90;;;;;;5049108;28;20053;-67
2022/07/11 05:05:54;;;;;;;2.00;1.33;;;16.30;99.90;;;;;;5050121;28;20045;-68
2022/07/11 05:08:20;;;;;;;1.40;1.30;;;16.30;99.90;;;;;;5061696;28;20044;-68
2022/07/11 05:10:46;;;;;;;3.58;1.23;;;16.40;99.90;;;;;;5067911;28;20493;-67
2022/07/11 05:13:12;;;;;;;1.77;1.10;;;16.40;99.90;;;;;;5052412;28;20078;-68
2022/07/11 05:15:39;;;;;;;1.83;1.10;;;16.40;99.90;;;;;;5050493;28;20048;-68
2022/07/11 05:18:05;;;;;;;2.40;1.00;;;16.40;99.90;;;;;;5047198;28;20051;-68
2022/07/11 05:20:31;;;;;;;2.00;0.90;;;16.40;99.90;;;;;;5066859;28;20482;-68
2022/07/11 05:22:57;;;;;;;2.90;1.10;;;16.30;99.90;;;;;;5054668;28;20094;-68
2022/07/11 05:25:23;;;;;;;1.58;1.00;;;16.30;99.90;;;;;;5055369;28;20436;-68
2022/07/11 05:27:48;;;;;;;4.75;1.20;;;16.30;99.90;;;;;;5063940;28;20063;-68
2022/07/11 05:30:14;;;;;;;1.70;0.98;;;16.40;99.90;;;;;;5067600;28;20041;-68
2022/07/11 05:32:40;;;;;;;2.00;0.80;;;16.50;99.90;;;;;;5058872;28;20095;-68
2022/07/11 05:35:06;;;;;;;1.15;0.80;;;16.50;99.90;;;;;;5051914;28;20047;-68
2022/07/11 05:37:31;;;;;;;1.73;0.80;;;16.70;99.90;;;;;;5063660;28;20499;-68
2022/07/11 05:39:57;;;;;;;1.35;0.60;;;16.80;99.90;;;;;;5065894;28;20040;-68
2022/07/11 05:42:23;;;;;;;1.15;0.80;;;17.00;99.90;;;;;;5070384;28;20044;-68
2022/07/11 05:44:49;;;;;;;2.25;0.80;;;17.00;99.90;;;;;;5068596;28;20401;-68
2022/07/11 05:47:15;;;;;;;0.90;0.65;;;16.90;99.90;;;;;;5070642;28;20100;-68
2022/07/11 05:49:40;;;;;;;0.80;0.73;;;16.90;99.90;;;;;;5051874;28;20120;-69
2022/07/11 05:52:06;;;;;;;1.90;0.77;;;16.90;99.90;;;;;;5054839;28;20041;-68
2022/07/11 05:54:32;;;;;;;2.13;0.75;;;17.00;99.90;;;;;;5068401;28;20048;-68
2022/07/11 05:56:57;;;;;;;1.58;0.70;;;17.00;99.90;;;;;;5054663;28;20478;-68
2022/07/11 05:59:23;;;;;;;1.85;0.60;;;17.00;99.90;;;;;;5072590;28;20051;-68
2022/07/11 06:01:48;;;;;;;1.38;0.65;;;17.00;99.90;;;;;;5029393;28;20037;-68
2022/07/11 06:04:14;;;;;;;2.78;0.73;;;17.00;99.90;;;;;;5054877;28;20036;-68
2022/07/11 06:06:40;;;;;;;0.60;0.50;;;16.90;99.90;;;;;;5062089;28;20120;-68
2022/07/11 06:09:06;;;;;;;2.60;0.90;;;17.00;99.90;;;;;;5041061;28;20405;-68
2022/07/11 06:11:32;;;;;;;1.70;0.70;;;17.00;99.90;;;;;;5019919;28;20041;-68
2022/07/11 06:13:58;;;;;;;3.28;0.75;;;17.10;99.90;;;;;;5065670;28;20490;-68
2022/07/11 06:16:24;;;;;;;1.83;0.57;;;17.30;99.90;;;;;;5037580;28;20052;-68
2022/07/11 06:18:53;;;;;;;1.08;0.60;;;17.10;99.90;;;;;;5053045;28;20039;-68
2022/07/11 06:21:21;;;;;;;1.92;0.70;;;17.20;99.90;;;;;;5065434;28;20481;-68
2022/07/11 06:23:47;;;;;;;2.00;0.90;;;17.20;99.90;;;;;;5060669;28;20074;-69
2022/07/11 06:26:15;;;;;;;1.70;0.75;;;17.20;99.90;;;;;;5051032;28;20080;-68
2022/07/11 06:28:41;;;;;;;2.05;0.52;;;17.20;99.90;;;;;;5047603;28;20112;-68
2022/07/11 06:31:06;;;;;;;2.25;0.70;;;17.20;99.90;;;;;;5049859;28;20066;-68
2022/07/11 06:33:32;;;;;;;1.95;0.50;;;17.20;99.90;;;;;;5064045;28;20470;-68
2022/07/11 06:35:57;;;;;;;3.15;0.75;;;17.10;99.90;;;;;;5053249;28;20040;-68
2022/07/11 06:38:23;;;;;;;2.08;0.55;;;17.20;99.90;;;;;;5032390;28;20060;-68
2022/07/11 06:40:49;;;;;;;2.20;0.50;;;17.30;99.90;;;;;;5049242;28;20121;-68
2022/07/11 06:43:14;;;;;;;2.00;0.57;;;17.20;99.90;;;;;;5069089;28;20040;-68
2022/07/11 06:45:40;;;;;;;1.38;0.55;;;17.20;99.90;;;;;;5053981;28;20053;-68
2022/07/11 06:48:06;;;;;;;1.85;0.52;;;17.20;99.90;;;;;;5072075;28;20413;-68
2022/07/11 06:50:32;;;;;;;1.42;0.43;;;17.20;99.90;;;;;;5070741;28;20043;-68
2022/07/11 06:52:58;;;;;;;1.48;0.73;;;17.10;99.90;;;;;;5070452;28;20416;-67
2022/07/11 06:55:24;;;;;;;2.00;0.80;;;17.30;99.90;;;;;;5053911;28;20102;-68
2022/07/11 06:57:50;;;;;;;1.30;0.60;;;17.10;99.90;;;;;;5048803;28;20061;-67
2022/07/11 07:00:17;;;;;;;0.80;0.70;;;17.10;99.90;;;;;;5071714;28;20033;-68
2022/07/11 07:02:43;;;;;;;2.95;0.80;;;17.30;99.90;;;;;;5071573;28;20049;-67
2022/07/11 07:05:09;;;;;;;2.97;0.70;;;17.70;99.90;;;;;;5071778;28;20036;-67
2022/07/11 07:07:35;;;;;;;1.75;0.52;;;18.30;99.90;;;;;;5053281;28;20102;-68
2022/07/11 07:10:00;;;;;;;0.68;0.40;;;18.60;99.90;;;;;;5053607;28;20040;-68
2022/07/11 07:12:26;;;;;;;1.40;0.57;;;18.80;99.90;;;;;;5070747;28;20047;-68
2022/07/11 07:14:52;;;;;;;0.60;0.40;;;18.90;99.90;;;;;;5053269;28;20044;-67
2022/07/11 07:17:18;;;;;;;2.17;0.50;;;19.00;99.90;;;;;;5063477;28;20036;-68
2022/07/11 07:19:44;;;;;;;2.28;0.60;;;19.10;99.90;;;;;;5051873;28;20067;-68
2022/07/11 07:22:10;;;;;;;1.55;0.52;;;19.20;99.90;;;;;;5052989;28;20036;-68
2022/07/11 07:24:36;;;;;;;0.57;0.50;;;19.10;99.90;;;;;;5052271;28;20041;-68
2022/07/11 07:27:02;;;;;;;1.23;0.50;;;19.20;99.90;;;;;;5054581;28;20410;-68
2022/07/11 07:29:28;;;;;;;1.27;0.50;;;19.30;99.90;;;;;;5057591;28;20599;-68
2022/07/11 07:31:54;;;;;;;2.25;0.50;;;19.50;99.90;;;;;;5050908;28;20032;-68
2022/07/11 07:34:20;;;;;;;1.83;0.68;;;19.80;99.90;;;;;;5054064;28;20120;-68
2022/07/11 07:36:46;;;;;;;0.90;0.52;;;20.30;99.90;;;;;;5051578;28;20072;-68
2022/07/11 07:39:11;;;;;;;1.05;0.57;;;20.20;99.90;;;;;;5018215;28;20493;-67
2022/07/11 07:41:37;;;;;;;1.38;0.57;;;20.60;99.90;;;;;;5036030;28;20045;-70
2022/07/11 07:44:03;;;;;;;1.65;0.30;;;21.80;99.90;;;;;;5068851;28;20513;-71
2022/07/11 07:46:28;;;;;;;0.63;0.28;;;22.50;99.90;;;;;;5048450;28;20044;-70
2022/07/11 07:48:54;;;;;;;0.20;0.20;;;22.50;99.90;;;;;;5063386;28;20024;-70
2022/07/11 07:51:21;;;;;;;0.40;0.30;;;23.10;99.90;;;;;;5065916;28;20623;-70
2022/07/11 07:53:47;;;;;;;0.52;0.20;;;23.40;99.90;;;;;;5032845;28;20037;-70
2022/07/11 07:56:12;;;;;;;0.93;0.20;;;23.20;99.90;;;;;;5052118;28;20037;-70
2022/07/11 07:58:38;;;;;;;0.38;0.20;;;23.10;99.90;;;;;;5052487;28;20049;-70
2022/07/11 08:03:48;;;;;;;0.70;0.35;;;22.10;99.90;;;;;;5056034;28;20052;-70
2022/07/11 08:06:14;;;;;;;0.95;0.40;;;21.50;99.90;;;;;;5064254;28;20551;-69
2022/07/11 08:08:39;;;;;;;0.40;0.40;;;21.10;99.90;;;;;;5039287;28;20044;-70
2022/07/11 08:11:05;;;;;;;1.02;0.40;;;20.60;99.90;;;;;;5071976;28;20048;-69
2022/07/11 08:13:31;;;;;;;0.60;0.50;;;20.60;99.90;;;;;;5073580;28;20052;-69
2022/07/11 08:15:56;;;;;;;2.30;0.63;;;20.40;99.90;;;;;;5058048;28;20032;-70
2022/07/11 08:18:22;;;;;;;0.82;0.55;;;20.30;99.90;;;;;;5047048;28;20044;-70
2022/07/11 08:20:47;;;;;;;1.20;0.40;;;20.30;99.90;;;;;;5054141;28;20040;-70
2022/07/11 08:23:13;;;;;;;1.40;0.52;;;20.00;99.90;;;;;;5040021;28;20505;-70
2022/07/11 08:25:39;;;;;;;1.35;0.40;;;20.10;99.90;;;;;;5056381;28;20498;-70
2022/07/11 08:28:05;;;;;;;0.95;0.60;;;19.80;99.90;;;;;;5073315;28;20127;-69
2022/07/11 08:30:31;;;;;;;0.65;0.40;;;19.90;99.90;;;;;;5048886;28;20170;-70
2022/07/11 08:32:57;;;;;;;0.77;0.38;;;19.80;99.90;;;;;;5073118;28;20044;-69
2022/07/11 08:35:23;;;;;;;0.85;0.50;;;19.80;99.90;;;;;;5055415;28;20059;-70
2022/07/11 08:37:48;;;;;;;1.00;0.50;;;19.80;99.90;;;;;;5056534;28;20044;-70
2022/07/11 08:40:14;;;;;;;1.27;0.70;;;20.00;99.90;;;;;;5055509;28;20141;-70
2022/07/11 08:42:44;;;;;;;2.33;0.70;;;20.10;99.90;;;;;;5048123;28;20044;-70
2022/07/11 08:45:14;;;;;;;0.50;0.40;;;20.30;99.90;;;;;;5055263;28;20037;-71
2022/07/11 08:47:41;;;;;;;2.25;0.50;;;20.40;99.90;;;;;;5056501;28;20537;-70
2022/07/11 08:50:08;;;;;;;1.52;0.63;;;20.30;99.90;;;;;;5055985;28;20049;-70
2022/07/11 08:52:34;;;;;;;0.90;0.50;;;20.00;99.90;;;;;;5038665;28;20048;-70
2022/07/11 08:55:00;;;;;;;0.40;0.40;;;19.90;99.90;;;;;;5055305;28;20040;-70
2022/07/11 08:57:26;;;;;;;2.53;0.75;;;19.60;99.90;;;;;;5067609;28;20071;-70
2022/07/11 08:59:55;;;;;;;1.20;0.57;;;19.70;99.90;;;;;;5071041;28;20047;-70
2022/07/11 09:02:22;;;;;;;2.17;0.50;;;19.70;99.90;;;;;;5067888;28;20044;-70
2022/07/11 09:04:48;;;;;;;2.10;0.50;;;19.60;99.90;;;;;;5070891;28;20072;-70
2022/07/11 09:07:14;;;;;;;0.85;0.50;;;19.60;99.90;;;;;;5058075;28;20418;-70
2022/07/11 09:09:39;;;;;;;0.52;0.30;;;19.40;99.90;;;;;;5034178;28;20144;-70
2022/07/11 09:12:14;;;;;;;1.17;0.40;;;19.40;99.90;;;;;;5033813;28;20036;-70
2022/07/11 09:14:39;;;;;;;0.85;0.47;;;19.40;99.90;;;;;;5018875;28;20115;-70
2022/07/11 09:17:06;;;;;;;0.60;0.30;;;19.40;99.90;;;;;;5033601;28;20064;-70
2022/07/11 09:19:36;;;;;;;0.60;0.30;;;19.50;99.90;;;;;;5015287;28;20087;-70
2022/07/11 09:28:01;;;;;;;0.32;0.20;;;19.90;99.90;;;;;;5028336;28;20069;-70
2022/07/11 09:30:35;;;;;;;0.20;0.20;;;20.30;99.90;;;;;;4998578;28;20123;-70
2022/07/11 09:33:03;;;;;;;0.30;0.30;;;20.50;99.90;;;;;;5026402;28;20470;-70
2022/07/11 09:35:37;;;;;;;0.85;0.30;;;20.70;99.90;;;;;;5052656;28;20037;-71
2022/07/11 09:38:17;;;;;;;0.20;0.20;;;20.50;99.90;;;;;;5035405;28;20064;-70
2022/07/11 09:40:44;;;;;;;1.70;0.32;;;20.30;99.90;;;;;;5035438;28;20603;-70
2022/07/11 09:43:10;;;;;;;0.22;0.20;;;20.20;99.90;;;;;;5032588;28;20530;-70
2022/07/11 09:45:36;;;;;;;0.57;0.20;;;20.10;99.90;;;;;;5032427;28;20040;-70
2022/07/11 09:48:10;;;;;;;0.65;0.35;;;19.90;99.90;;;;;;5018741;28;20489;-69
2022/07/11 09:50:35;;;;;;;0.65;0.30;;;19.90;99.90;;;;;;5018581;28;20048;-69
2022/07/11 09:53:03;;;;;;;0.40;0.20;;;19.90;99.90;;;;;;5035370;28;20167;-69
2022/07/11 09:55:30;;;;;;;0.52;0.30;;;19.80;99.90;;;;;;5029972;28;20043;-69
2022/07/11 09:57:56;;;;;;;0.28;0.28;;;19.70;99.90;;;;;;5029240;28;20041;-69
2022/07/11 10:00:22;;;;;;;0.60;0.20;;;19.70;99.90;;;;;;5031320;28;20072;-69
2022/07/11 10:02:49;;;;;;;0.98;0.40;;;19.70;99.90;;;;;;5032498;28;20049;-69
2022/07/11 10:05:14;;;;;;;0.38;0.20;;;19.80;99.90;;;;;;5033254;28;20049;-69
2022/07/11 10:07:40;;;;;;;0.43;0.25;;;19.90;99.90;;;;;;5055327;28;20052;-68
2022/07/11 10:10:07;;;;;;;0.32;0.20;;;20.00;99.90;;;;;;5044671;28;20410;-68
2022/07/11 10:12:33;;;;;;;0.40;0.20;;;20.10;99.90;;;;;;5049225;28;20044;-68
2022/07/11 10:15:03;;;;;;;1.75;0.28;;;20.10;99.90;;;;;;5048775;28;20388;-68
2022/07/11 10:17:54;;;;;;;0.45;0.20;;;20.10;99.90;;;;;;5056023;28;20064;-68
2022/07/11 10:20:31;;;;;;;0.20;0.20;;;20.20;99.90;;;;;;5026728;28;20118;-68
2022/07/11 10:23:22;;;;;;;1.05;0.20;;;20.00;99.90;;;;;;5056833;28;20063;-68
2022/07/11 10:26:01;;;;;;;0.73;0.20;;;20.00;99.90;;;;;;5058246;28;20052;-69
2022/07/11 10:28:42;;;;;;;0.77;0.40;;;20.10;99.90;;;;;;5053815;28;20040;-68
2022/07/11 10:31:19;;;;;;;0.38;0.20;;;20.00;99.90;;;;;;5047310;28;20030;-68
2022/07/11 10:34:05;;;;;;;0.63;0.30;;;20.10;99.90;;;;;;5034832;28;20410;-68
2022/07/11 10:36:41;;;;;;;0.45;0.28;;;20.10;99.90;;;;;;5040701;28;20088;-68
2022/07/11 10:39:26;;;;;;;0.93;0.35;;;20.00;99.90;;;;;;5051078;28;20496;-68
2022/07/11 10:41:53;;;;;;;1.48;0.30;;;20.10;99.90;;;;;;5041089;28;20030;-68
2022/07/11 10:44:19;;;;;;;0.50;0.30;;;20.10;99.90;;;;;;5047850;28;20055;-69
2022/07/11 10:46:45;;;;;;;1.15;0.20;;;20.10;99.90;;;;;;5048774;28;20048;-69
2022/07/11 10:49:14;;;;;;;0.65;0.30;;;20.00;99.90;;;;;;5032535;28;20037;-69
2022/07/11 10:52:01;;;;;;;0.50;0.20;;;20.10;99.90;;;;;;5048977;28;20037;-69
2022/07/11 10:54:42;;;;;;;1.55;0.30;;;20.10;99.90;;;;;;5043717;28;20048;-69
2022/07/11 10:57:28;;;;;;;0.90;0.23;;;20.20;99.90;;;;;;5039348;28;20116;-69
2022/07/11 10:59:59;;;;;;;1.00;0.30;;;20.20;99.90;;;;;;5043636;28;20716;-69
2022/07/11 11:02:29;;;;;;;1.15;0.25;;;20.30;99.90;;;;;;5031858;28;20072;-69
2022/07/11 11:05:00;;;;;;;0.20;0.20;;;20.30;99.90;;;;;;5033939;28;20497;-69
2022/07/11 11:07:37;;;;;;;1.35;0.40;;;20.20;99.90;;;;;;5032412;28;20049;-69
2022/07/11 11:10:07;;;;;;;0.98;0.30;;;20.30;99.90;;;;;;5045421;28;20532;-69
2022/07/11 11:13:13;;;;;;;0.43;0.30;;;20.40;99.90;;;;;;5032497;28;20048;-69
2022/07/11 11:15:54;;;;;;;1.35;0.25;;;20.50;99.90;;;;;;4998088;28;20057;-69
2022/07/11 11:18:25;;;;;;;0.55;0.30;;;20.60;99.90;;;;;;5021783;28;20075;-69
2022/07/11 11:21:02;;;;;;;1.55;0.40;;;20.10;99.90;;;;;;5026328;28;20533;-69
2022/07/11 11:23:33;;;;;;;0.45;0.40;;;20.40;99.90;;;;;;5033150;28;20049;-69
2022/07/11 11:26:13;;;;;;;3.30;1.10;;;20.60;99.90;;;;;;5042784;28;20052;-69
2022/07/11 11:28:56;;;;;;;1.90;0.40;;;20.70;99.90;;;;;;5051170;28;20111;-69
2022/07/11 11:31:22;;;;;;;0.90;0.30;;;20.80;99.90;;;;;;5028311;28;20410;-69
2022/07/11 11:33:48;;;;;;;1.70;0.45;;;21.00;99.90;;;;;;5030564;28;20041;-69
2022/07/11 11:36:16;;;;;;;1.45;0.30;;;21.20;99.90;;;;;;5029659;28;20601;-70
2022/07/11 11:38:43;;;;;;;0.63;0.20;;;21.50;99.90;;;;;;5032978;28;20087;-70
2022/07/11 11:41:09;;;;;;;0.73;0.45;;;21.60;99.90;;;;;;5032742;28;20124;-69
2022/07/11 11:43:37;;;;;;;0.30;0.20;;;21.70;99.90;;;;;;5049589;28;20127;-69
2022/07/11 11:46:03;;;;;;;0.60;0.40;;;21.80;99.90;;;;;;5037904;28;20087;-69
2022/07/11 11:48:28;;;;;;;0.63;0.50;;;21.80;99.90;;;;;;5031989;28;20067;-70
2022/07/11 11:51:07;;;;;;;0.70;0.30;;;21.80;99.90;;;;;;5020641;28;20041;-69
2022/07/11 11:53:43;;;;;;;0.82;0.70;;;21.80;99.90;;;;;;5047985;28;20069;-69
2022/07/11 11:56:23;;;;;;;1.02;0.65;;;21.60;99.90;;;;;;5012129;28;20032;-70
2022/07/11 11:58:51;;;;;;;1.05;0.77;;;21.40;99.90;;;;;;5049748;28;20163;-70
2022/07/11 12:01:24;;;;;;;2.03;0.80;;;21.20;99.90;;;;;;5034309;28;20058;-69
2022/07/11 12:03:54;;;;;;;1.05;0.40;;;20.90;99.90;;;;;;5022072;28;20032;-69
2022/07/11 12:06:40;;;;;;;0.40;0.40;;;20.60;99.90;;;;;;5036244;28;20120;-69
2022/07/11 12:09:11;;;;;;;1.10;0.50;;;20.70;99.90;;;;;;5048190;28;20467;-69
2022/07/11 12:11:45;;;;;;;1.23;0.50;;;20.70;99.90;;;;;;5032948;28;20076;-69
2022/07/11 12:14:13;;;;;;;5.43;4.25;;;20.80;99.90;;;;;;5035607;28;20494;-69
2022/07/11 12:16:41;;;;;;;2.42;0.80;;;20.90;99.90;;;;;;5032140;28;20144;-69
2022/07/11 12:19:18;;;;;;;4.05;1.20;;;20.70;99.90;;;;;;5049360;28;20766;-69
2022/07/11 12:21:50;;;;;;;1.65;0.70;;;20.70;99.90;;;;;;5030120;28;20045;-69
2022/07/11 12:24:16;;;;;;;;;;;21.00;99.90;;;;;;5016024;28;20632;-69
2022/07/11 12:26:42;;;;;;;1.23;0.40;;;21.30;99.90;;;;;;5032717;28;20369;-69
2022/07/11 12:29:11;;;;;;;1.23;0.40;;;21.40;99.90;;;;;;5015712;28;20624;-69
2022/07/11 12:32:13;;;;;;;0.47;0.40;;;21.50;99.90;;;;;;5025750;28;20446;-69
2022/07/11 12:34:38;;;;;;;12.70;11.63;;;21.30;99.90;;;;;;4972029;28;20193;-69
2022/07/11 12:37:09;;;;;;;5.60;5.15;;;21.10;99.90;;;;;;5013482;28;20081;-69
2022/07/11 12:39:45;;;;;;;2.88;2.60;;;21.20;99.90;;;;;;5031617;28;20225;-69
2022/07/11 12:42:29;;;;;;;10.93;10.13;;;21.20;99.90;;;;;;5032912;28;20041;-69
2022/07/11 12:44:59;;;;;;;4.13;3.83;;;21.10;99.90;;;;;;5032213;28;20517;-69
2022/07/11 12:47:26;;;;;;;5.60;5.20;;;21.10;99.90;;;;;;5050256;28;20044;-69
2022/07/11 12:49:52;;;;;;;2.22;2.03;;;21.00;99.90;;;;;;5053722;28;20041;-69
2022/07/11 12:52:18;;;;;;;1.20;1.10;;;21.00;99.90;;;;;;5036180;28;20087;-69
2022/07/11 12:54:44;;;;;;;22.83;21.13;;;21.10;99.90;;;;;;5035622;28;20045;-69
2022/07/11 12:57:14;;;;;;;16.90;15.70;;;21.10;99.90;;;;;;5027846;28;20132;-69
2022/07/11 12:59:40;;;;;;;4.87;4.57;;;21.20;99.90;;;;;;5053049;28;20080;-69
2022/07/11 13:02:07;;;;;;;1.00;0.60;;;21.20;99.90;;;;;;5036117;28;20478;-69
2022/07/11 13:04:41;;;;;;;0.50;0.50;;;21.30;99.90;;;;;;5036012;28;20498;-69